sensor_id;sensor_type;location;lat;lon;timestamp;P1;durP1;ratioP1;P2;durP2;ratioP2
67372;SDS011;54257;54.496;18.412;2022-11-14T00:00:51;9.50;;;6.00;;
67372;SDS011;54257;54.496;18.412;2022-11-14T00:03:18;9.30;;;6.60;;
67372;SDS011;54257;54.496;18.412;2022-11-14T00:05:45;9.10;;;6.50;;
67372;SDS011;54257;54.496;18.412;2022-11-14T00:08:21;11.90;;;7.20;;
67372;SDS011;54257;54.496;18.412;2022-11-14T00:10:53;9.60;;;6.30;;
67372;SDS011;54257;54.496;18.412;2022-11-14T00:13:20;11.80;;;6.80;;
67372;SDS011;54257;54.496;18.412;2022-11-14T00:15:48;7.40;;;6.30;;
67372;SDS011;54257;54.496;18.412;2022-11-14T00:18:17;9.80;;;6.20;;
67372;SDS011;54257;54.496;18.412;2022-11-14T00:20:46;12.70;;;6.70;;
67372;SDS011;54257;54.496;18.412;2022-11-14T00:23:14;8.50;;;6.00;;
67372;SDS011;54257;54.496;18.412;2022-11-14T00:25:42;8.50;;;6.30;;
67372;SDS011;54257;54.496;18.412;2022-11-14T00:28:09;9.90;;;5.90;;
67372;SDS011;54257;54.496;18.412;2022-11-14T00:30:37;7.10;;;5.90;;
67372;SDS011;54257;54.496;18.412;2022-11-14T00:33:04;8.60;;;7.00;;
67372;SDS011;54257;54.496;18.412;2022-11-14T00:35:31;10.20;;;6.20;;
67372;SDS011;54257;54.496;18.412;2022-11-14T00:37:58;6.60;;;5.30;;
67372;SDS011;54257;54.496;18.412;2022-11-14T00:40:25;8.30;;;6.10;;
67372;SDS011;54257;54.496;18.412;2022-11-14T00:42:52;9.00;;;6.20;;
67372;SDS011;54257;54.496;18.412;2022-11-14T00:45:18;8.40;;;5.50;;
67372;SDS011;54257;54.496;18.412;2022-11-14T00:47:46;7.70;;;5.80;;
67372;SDS011;54257;54.496;18.412;2022-11-14T00:50:13;8.20;;;5.50;;
67372;SDS011;54257;54.496;18.412;2022-11-14T00:52:41;8.10;;;5.60;;
67372;SDS011;54257;54.496;18.412;2022-11-14T00:55:08;8.10;;;5.50;;
67372;SDS011;54257;54.496;18.412;2022-11-14T00:57:35;7.80;;;5.60;;
67372;SDS011;54257;54.496;18.412;2022-11-14T01:00:03;10.90;;;6.70;;
67372;SDS011;54257;54.496;18.412;2022-11-14T01:02:31;10.80;;;5.70;;
67372;SDS011;54257;54.496;18.412;2022-11-14T01:04:58;8.40;;;5.90;;
67372;SDS011;54257;54.496;18.412;2022-11-14T01:07:26;9.00;;;5.80;;
67372;SDS011;54257;54.496;18.412;2022-11-14T01:09:53;9.80;;;7.10;;
67372;SDS011;54257;54.496;18.412;2022-11-14T01:12:20;10.50;;;7.10;;
67372;SDS011;54257;54.496;18.412;2022-11-14T01:14:47;7.70;;;5.80;;
67372;SDS011;54257;54.496;18.412;2022-11-14T01:17:14;8.60;;;6.80;;
67372;SDS011;54257;54.496;18.412;2022-11-14T01:19:41;9.60;;;6.50;;
67372;SDS011;54257;54.496;18.412;2022-11-14T01:22:08;7.10;;;6.00;;
67372;SDS011;54257;54.496;18.412;2022-11-14T01:24:35;9.00;;;6.90;;
67372;SDS011;54257;54.496;18.412;2022-11-14T01:27:02;10.90;;;6.50;;
67372;SDS011;54257;54.496;18.412;2022-11-14T01:29:29;9.10;;;7.50;;
67372;SDS011;54257;54.496;18.412;2022-11-14T01:31:56;8.80;;;6.60;;
67372;SDS011;54257;54.496;18.412;2022-11-14T01:34:23;10.10;;;7.70;;
67372;SDS011;54257;54.496;18.412;2022-11-14T01:36:50;12.80;;;7.80;;
67372;SDS011;54257;54.496;18.412;2022-11-14T01:39:16;9.50;;;7.00;;
67372;SDS011;54257;54.496;18.412;2022-11-14T01:41:43;9.80;;;6.80;;
67372;SDS011;54257;54.496;18.412;2022-11-14T01:44:56;8.50;;;6.70;;
67372;SDS011;54257;54.496;18.412;2022-11-14T01:47:12;7.60;;;6.30;;
67372;SDS011;54257;54.496;18.412;2022-11-14T01:49:45;7.20;;;5.80;;
67372;SDS011;54257;54.496;18.412;2022-11-14T01:54:56;7.70;;;6.20;;
67372;SDS011;54257;54.496;18.412;2022-11-14T01:57:26;7.80;;;5.20;;
67372;SDS011;54257;54.496;18.412;2022-11-14T02:00:03;7.20;;;4.40;;
67372;SDS011;54257;54.496;18.412;2022-11-14T02:02:32;8.10;;;4.40;;
67372;SDS011;54257;54.496;18.412;2022-11-14T02:05:05;6.10;;;4.70;;
67372;SDS011;54257;54.496;18.412;2022-11-14T02:07:35;7.40;;;4.40;;
67372;SDS011;54257;54.496;18.412;2022-11-14T02:10:15;5.40;;;3.70;;
67372;SDS011;54257;54.496;18.412;2022-11-14T02:12:46;6.40;;;3.90;;
67372;SDS011;54257;54.496;18.412;2022-11-14T02:15:17;4.80;;;4.00;;
67372;SDS011;54257;54.496;18.412;2022-11-14T02:17:44;5.60;;;3.70;;
67372;SDS011;54257;54.496;18.412;2022-11-14T02:22:38;6.10;;;3.60;;
67372;SDS011;54257;54.496;18.412;2022-11-14T02:25:07;6.10;;;4.00;;
67372;SDS011;54257;54.496;18.412;2022-11-14T02:27:36;5.70;;;3.90;;
67372;SDS011;54257;54.496;18.412;2022-11-14T02:30:06;5.20;;;3.30;;
67372;SDS011;54257;54.496;18.412;2022-11-14T02:32:36;4.70;;;3.80;;
67372;SDS011;54257;54.496;18.412;2022-11-14T02:35:03;4.10;;;3.60;;
67372;SDS011;54257;54.496;18.412;2022-11-14T02:37:31;5.50;;;3.40;;
67372;SDS011;54257;54.496;18.412;2022-11-14T02:39:58;7.50;;;3.30;;
67372;SDS011;54257;54.496;18.412;2022-11-14T02:42:25;6.20;;;3.50;;
67372;SDS011;54257;54.496;18.412;2022-11-14T02:44:52;4.50;;;3.00;;
67372;SDS011;54257;54.496;18.412;2022-11-14T02:47:19;3.80;;;3.30;;
67372;SDS011;54257;54.496;18.412;2022-11-14T02:49:45;4.60;;;3.60;;
67372;SDS011;54257;54.496;18.412;2022-11-14T02:52:12;5.70;;;3.10;;
67372;SDS011;54257;54.496;18.412;2022-11-14T02:54:39;4.80;;;3.70;;
67372;SDS011;54257;54.496;18.412;2022-11-14T02:57:06;5.40;;;3.40;;
67372;SDS011;54257;54.496;18.412;2022-11-14T02:59:33;5.70;;;3.50;;
67372;SDS011;54257;54.496;18.412;2022-11-14T03:02:00;4.60;;;3.50;;
67372;SDS011;54257;54.496;18.412;2022-11-14T03:04:27;5.00;;;3.20;;
67372;SDS011;54257;54.496;18.412;2022-11-14T03:06:54;5.30;;;3.40;;
67372;SDS011;54257;54.496;18.412;2022-11-14T03:09:21;3.90;;;3.40;;
67372;SDS011;54257;54.496;18.412;2022-11-14T03:11:48;5.10;;;3.20;;
67372;SDS011;54257;54.496;18.412;2022-11-14T03:14:15;2.80;;;2.40;;
67372;SDS011;54257;54.496;18.412;2022-11-14T03:16:42;4.30;;;3.70;;
67372;SDS011;54257;54.496;18.412;2022-11-14T03:19:09;5.50;;;3.30;;
67372;SDS011;54257;54.496;18.412;2022-11-14T03:21:36;4.80;;;3.50;;
67372;SDS011;54257;54.496;18.412;2022-11-14T03:24:03;6.60;;;3.80;;
67372;SDS011;54257;54.496;18.412;2022-11-14T03:26:30;6.00;;;3.80;;
67372;SDS011;54257;54.496;18.412;2022-11-14T03:28:57;4.90;;;4.00;;
67372;SDS011;54257;54.496;18.412;2022-11-14T03:31:24;5.50;;;4.00;;
67372;SDS011;54257;54.496;18.412;2022-11-14T03:33:51;6.90;;;4.40;;
67372;SDS011;54257;54.496;18.412;2022-11-14T03:36:18;6.80;;;4.80;;
67372;SDS011;54257;54.496;18.412;2022-11-14T03:38:45;6.90;;;4.40;;
67372;SDS011;54257;54.496;18.412;2022-11-14T03:41:12;8.40;;;4.80;;
67372;SDS011;54257;54.496;18.412;2022-11-14T03:43:39;5.90;;;4.70;;
67372;SDS011;54257;54.496;18.412;2022-11-14T03:46:06;7.80;;;5.70;;
67372;SDS011;54257;54.496;18.412;2022-11-14T03:48:33;6.90;;;5.40;;
67372;SDS011;54257;54.496;18.412;2022-11-14T03:51:00;8.60;;;5.20;;
67372;SDS011;54257;54.496;18.412;2022-11-14T03:53:27;7.50;;;5.00;;
67372;SDS011;54257;54.496;18.412;2022-11-14T03:55:54;8.30;;;5.60;;
67372;SDS011;54257;54.496;18.412;2022-11-14T03:58:21;6.90;;;4.80;;
67372;SDS011;54257;54.496;18.412;2022-11-14T04:00:48;8.10;;;5.50;;
67372;SDS011;54257;54.496;18.412;2022-11-14T04:03:15;9.60;;;6.10;;
67372;SDS011;54257;54.496;18.412;2022-11-14T04:05:45;8.80;;;5.40;;
67372;SDS011;54257;54.496;18.412;2022-11-14T04:08:12;8.20;;;5.50;;
67372;SDS011;54257;54.496;18.412;2022-11-14T04:10:39;9.40;;;6.60;;
67372;SDS011;54257;54.496;18.412;2022-11-14T04:13:07;8.70;;;6.20;;
67372;SDS011;54257;54.496;18.412;2022-11-14T04:15:33;8.10;;;5.90;;
67372;SDS011;54257;54.496;18.412;2022-11-14T04:18:00;9.30;;;6.70;;
67372;SDS011;54257;54.496;18.412;2022-11-14T04:20:27;9.90;;;6.40;;
67372;SDS011;54257;54.496;18.412;2022-11-14T04:22:55;9.90;;;7.50;;
67372;SDS011;54257;54.496;18.412;2022-11-14T04:25:22;11.10;;;7.20;;
67372;SDS011;54257;54.496;18.412;2022-11-14T04:27:48;7.90;;;6.50;;
67372;SDS011;54257;54.496;18.412;2022-11-14T04:30:15;9.60;;;6.50;;
67372;SDS011;54257;54.496;18.412;2022-11-14T04:32:45;8.60;;;6.10;;
67372;SDS011;54257;54.496;18.412;2022-11-14T04:35:15;10.90;;;6.90;;
67372;SDS011;54257;54.496;18.412;2022-11-14T04:37:44;11.70;;;8.40;;
67372;SDS011;54257;54.496;18.412;2022-11-14T04:40:11;9.10;;;7.30;;
67372;SDS011;54257;54.496;18.412;2022-11-14T04:42:38;9.90;;;6.90;;
67372;SDS011;54257;54.496;18.412;2022-11-14T04:45:06;9.60;;;6.70;;
67372;SDS011;54257;54.496;18.412;2022-11-14T04:47:34;10.10;;;6.90;;
67372;SDS011;54257;54.496;18.412;2022-11-14T04:50:01;11.60;;;8.30;;
67372;SDS011;54257;54.496;18.412;2022-11-14T04:52:29;10.00;;;7.30;;
67372;SDS011;54257;54.496;18.412;2022-11-14T04:54:56;12.10;;;8.10;;
67372;SDS011;54257;54.496;18.412;2022-11-14T04:57:23;12.30;;;7.40;;
67372;SDS011;54257;54.496;18.412;2022-11-14T04:59:50;12.60;;;8.60;;
67372;SDS011;54257;54.496;18.412;2022-11-14T05:02:17;11.70;;;7.50;;
67372;SDS011;54257;54.496;18.412;2022-11-14T05:04:44;11.50;;;8.20;;
67372;SDS011;54257;54.496;18.412;2022-11-14T05:07:12;10.10;;;7.00;;
67372;SDS011;54257;54.496;18.412;2022-11-14T05:09:40;10.50;;;7.00;;
67372;SDS011;54257;54.496;18.412;2022-11-14T05:12:07;11.20;;;8.10;;
67372;SDS011;54257;54.496;18.412;2022-11-14T05:14:34;10.70;;;7.50;;
67372;SDS011;54257;54.496;18.412;2022-11-14T05:17:01;13.30;;;8.60;;
67372;SDS011;54257;54.496;18.412;2022-11-14T05:19:28;10.90;;;7.70;;
67372;SDS011;54257;54.496;18.412;2022-11-14T05:21:55;12.40;;;8.80;;
67372;SDS011;54257;54.496;18.412;2022-11-14T05:24:22;12.70;;;7.90;;
67372;SDS011;54257;54.496;18.412;2022-11-14T05:26:49;11.80;;;8.60;;
67372;SDS011;54257;54.496;18.412;2022-11-14T05:29:16;10.40;;;8.00;;
67372;SDS011;54257;54.496;18.412;2022-11-14T05:31:43;11.10;;;7.90;;
67372;SDS011;54257;54.496;18.412;2022-11-14T05:34:10;10.90;;;7.50;;
67372;SDS011;54257;54.496;18.412;2022-11-14T05:36:37;12.10;;;7.60;;
67372;SDS011;54257;54.496;18.412;2022-11-14T05:39:04;11.20;;;7.30;;
67372;SDS011;54257;54.496;18.412;2022-11-14T05:41:31;10.90;;;7.50;;
67372;SDS011;54257;54.496;18.412;2022-11-14T05:43:58;10.60;;;7.80;;
67372;SDS011;54257;54.496;18.412;2022-11-14T05:46:25;10.50;;;7.80;;
67372;SDS011;54257;54.496;18.412;2022-11-14T05:48:51;10.90;;;8.00;;
67372;SDS011;54257;54.496;18.412;2022-11-14T05:51:19;10.80;;;8.10;;
67372;SDS011;54257;54.496;18.412;2022-11-14T05:53:46;10.20;;;7.70;;
67372;SDS011;54257;54.496;18.412;2022-11-14T05:56:13;11.70;;;7.00;;
67372;SDS011;54257;54.496;18.412;2022-11-14T05:58:40;12.90;;;8.40;;
67372;SDS011;54257;54.496;18.412;2022-11-14T06:01:08;11.50;;;8.20;;
67372;SDS011;54257;54.496;18.412;2022-11-14T06:03:37;15.70;;;9.00;;
67372;SDS011;54257;54.496;18.412;2022-11-14T06:06:06;13.40;;;8.00;;
67372;SDS011;54257;54.496;18.412;2022-11-14T06:08:35;14.20;;;9.80;;
67372;SDS011;54257;54.496;18.412;2022-11-14T06:11:04;11.30;;;8.20;;
67372;SDS011;54257;54.496;18.412;2022-11-14T06:13:33;17.80;;;10.60;;
67372;SDS011;54257;54.496;18.412;2022-11-14T06:16:01;16.00;;;10.30;;
67372;SDS011;54257;54.496;18.412;2022-11-14T06:18:31;16.50;;;10.40;;
67372;SDS011;54257;54.496;18.412;2022-11-14T06:20:59;16.80;;;10.60;;
67372;SDS011;54257;54.496;18.412;2022-11-14T06:23:27;20.30;;;10.80;;
67372;SDS011;54257;54.496;18.412;2022-11-14T06:26:04;18.10;;;10.70;;
67372;SDS011;54257;54.496;18.412;2022-11-14T06:28:33;17.60;;;11.40;;
67372;SDS011;54257;54.496;18.412;2022-11-14T06:31:01;16.70;;;10.50;;
67372;SDS011;54257;54.496;18.412;2022-11-14T06:33:33;17.90;;;11.10;;
67372;SDS011;54257;54.496;18.412;2022-11-14T06:36:03;18.40;;;11.50;;
67372;SDS011;54257;54.496;18.412;2022-11-14T06:38:32;18.00;;;12.30;;
67372;SDS011;54257;54.496;18.412;2022-11-14T06:41:01;17.30;;;11.40;;
67372;SDS011;54257;54.496;18.412;2022-11-14T06:43:33;19.30;;;11.00;;
67372;SDS011;54257;54.496;18.412;2022-11-14T06:46:02;19.70;;;12.50;;
67372;SDS011;54257;54.496;18.412;2022-11-14T06:48:31;21.80;;;12.40;;
67372;SDS011;54257;54.496;18.412;2022-11-14T06:50:59;23.50;;;11.70;;
67372;SDS011;54257;54.496;18.412;2022-11-14T06:53:28;18.70;;;11.50;;
67372;SDS011;54257;54.496;18.412;2022-11-14T06:56:05;21.90;;;13.00;;
67372;SDS011;54257;54.496;18.412;2022-11-14T06:58:38;21.20;;;12.60;;
67372;SDS011;54257;54.496;18.412;2022-11-14T07:01:11;23.70;;;13.00;;
67372;SDS011;54257;54.496;18.412;2022-11-14T07:03:43;24.10;;;14.40;;
67372;SDS011;54257;54.496;18.412;2022-11-14T07:06:15;23.30;;;13.90;;
67372;SDS011;54257;54.496;18.412;2022-11-14T07:08:48;23.60;;;13.80;;
67372;SDS011;54257;54.496;18.412;2022-11-14T07:11:18;22.70;;;13.60;;
67372;SDS011;54257;54.496;18.412;2022-11-14T07:13:51;18.30;;;11.60;;
67372;SDS011;54257;54.496;18.412;2022-11-14T07:16:22;23.20;;;13.90;;
67372;SDS011;54257;54.496;18.412;2022-11-14T07:18:57;21.90;;;14.10;;
67372;SDS011;54257;54.496;18.412;2022-11-14T07:21:25;23.10;;;15.00;;
67372;SDS011;54257;54.496;18.412;2022-11-14T07:23:54;30.30;;;16.90;;
67372;SDS011;54257;54.496;18.412;2022-11-14T07:26:22;23.10;;;14.20;;
67372;SDS011;54257;54.496;18.412;2022-11-14T07:28:49;21.40;;;13.00;;
67372;SDS011;54257;54.496;18.412;2022-11-14T07:31:17;19.60;;;12.50;;
67372;SDS011;54257;54.496;18.412;2022-11-14T07:33:45;20.40;;;12.30;;
67372;SDS011;54257;54.496;18.412;2022-11-14T07:36:13;21.60;;;13.40;;
67372;SDS011;54257;54.496;18.412;2022-11-14T07:38:42;21.70;;;13.70;;
67372;SDS011;54257;54.496;18.412;2022-11-14T07:41:13;21.50;;;13.40;;
67372;SDS011;54257;54.496;18.412;2022-11-14T07:43:41;26.10;;;14.40;;
67372;SDS011;54257;54.496;18.412;2022-11-14T07:46:13;22.20;;;13.70;;
67372;SDS011;54257;54.496;18.412;2022-11-14T07:48:43;20.60;;;14.00;;
67372;SDS011;54257;54.496;18.412;2022-11-14T07:51:17;23.90;;;15.60;;
67372;SDS011;54257;54.496;18.412;2022-11-14T07:53:45;23.50;;;14.30;;
67372;SDS011;54257;54.496;18.412;2022-11-14T07:56:12;21.70;;;12.80;;
67372;SDS011;54257;54.496;18.412;2022-11-14T07:58:39;23.80;;;13.80;;
67372;SDS011;54257;54.496;18.412;2022-11-14T08:01:09;29.40;;;15.00;;
67372;SDS011;54257;54.496;18.412;2022-11-14T08:03:37;24.30;;;14.10;;
67372;SDS011;54257;54.496;18.412;2022-11-14T08:06:07;22.60;;;12.80;;
67372;SDS011;54257;54.496;18.412;2022-11-14T08:11:06;17.50;;;11.30;;
67372;SDS011;54257;54.496;18.412;2022-11-14T08:13:34;20.80;;;13.10;;
67372;SDS011;54257;54.496;18.412;2022-11-14T08:16:04;20.80;;;13.00;;
67372;SDS011;54257;54.496;18.412;2022-11-14T08:18:33;22.60;;;13.70;;
67372;SDS011;54257;54.496;18.412;2022-11-14T08:21:03;24.10;;;14.10;;
67372;SDS011;54257;54.496;18.412;2022-11-14T08:23:31;27.10;;;14.90;;
67372;SDS011;54257;54.496;18.412;2022-11-14T08:25:58;22.10;;;14.10;;
67372;SDS011;54257;54.496;18.412;2022-11-14T08:28:26;31.70;;;15.30;;
67372;SDS011;54257;54.496;18.412;2022-11-14T08:30:57;20.60;;;12.90;;
67372;SDS011;54257;54.496;18.412;2022-11-14T08:33:28;24.20;;;14.00;;
67372;SDS011;54257;54.496;18.412;2022-11-14T08:36:02;19.70;;;12.30;;
67372;SDS011;54257;54.496;18.412;2022-11-14T08:38:31;22.20;;;13.30;;
67372;SDS011;54257;54.496;18.412;2022-11-14T08:41:00;22.00;;;13.10;;
67372;SDS011;54257;54.496;18.412;2022-11-14T08:43:29;17.80;;;11.20;;
67372;SDS011;54257;54.496;18.412;2022-11-14T08:45:57;20.30;;;11.30;;
67372;SDS011;54257;54.496;18.412;2022-11-14T08:48:25;22.10;;;12.70;;
67372;SDS011;54257;54.496;18.412;2022-11-14T08:50:53;24.60;;;12.50;;
67372;SDS011;54257;54.496;18.412;2022-11-14T08:53:20;17.30;;;11.00;;
67372;SDS011;54257;54.496;18.412;2022-11-14T08:55:47;19.50;;;11.40;;
67372;SDS011;54257;54.496;18.412;2022-11-14T08:58:39;18.90;;;11.80;;
67372;SDS011;54257;54.496;18.412;2022-11-14T09:01:06;16.00;;;10.60;;
67372;SDS011;54257;54.496;18.412;2022-11-14T09:03:33;13.70;;;9.80;;
67372;SDS011;54257;54.496;18.412;2022-11-14T09:06:01;16.80;;;11.00;;
67372;SDS011;54257;54.496;18.412;2022-11-14T09:08:29;17.50;;;10.60;;
67372;SDS011;54257;54.496;18.412;2022-11-14T09:11:00;13.30;;;9.40;;
67372;SDS011;54257;54.496;18.412;2022-11-14T09:13:28;17.40;;;11.10;;
67372;SDS011;54257;54.496;18.412;2022-11-14T09:15:58;13.90;;;9.20;;
67372;SDS011;54257;54.496;18.412;2022-11-14T09:18:25;21.40;;;11.30;;
67372;SDS011;54257;54.496;18.412;2022-11-14T09:20:52;18.00;;;10.90;;
67372;SDS011;54257;54.496;18.412;2022-11-14T09:23:19;17.90;;;10.60;;
67372;SDS011;54257;54.496;18.412;2022-11-14T09:25:46;21.30;;;10.30;;
67372;SDS011;54257;54.496;18.412;2022-11-14T09:28:13;13.90;;;10.00;;
67372;SDS011;54257;54.496;18.412;2022-11-14T09:30:39;17.40;;;10.80;;
67372;SDS011;54257;54.496;18.412;2022-11-14T09:33:07;15.00;;;10.40;;
67372;SDS011;54257;54.496;18.412;2022-11-14T09:35:34;13.80;;;10.60;;
67372;SDS011;54257;54.496;18.412;2022-11-14T09:38:04;13.20;;;9.80;;
67372;SDS011;54257;54.496;18.412;2022-11-14T09:40:41;14.50;;;10.40;;
67372;SDS011;54257;54.496;18.412;2022-11-14T09:45:53;15.40;;;10.00;;
67372;SDS011;54257;54.496;18.412;2022-11-14T09:48:28;14.60;;;9.90;;
67372;SDS011;54257;54.496;18.412;2022-11-14T09:51:07;12.20;;;9.70;;
67372;SDS011;54257;54.496;18.412;2022-11-14T09:56:59;12.00;;;7.70;;
67372;SDS011;54257;54.496;18.412;2022-11-14T09:59:26;11.20;;;8.20;;
67372;SDS011;54257;54.496;18.412;2022-11-14T10:01:56;10.00;;;7.10;;
67372;SDS011;54257;54.496;18.412;2022-11-14T10:13:21;11.00;;;7.20;;
67372;SDS011;54257;54.496;18.412;2022-11-14T10:18:39;10.20;;;7.70;;
67372;SDS011;54257;54.496;18.412;2022-11-14T10:27:11;10.10;;;7.10;;
67372;SDS011;54257;54.496;18.412;2022-11-14T10:35:35;10.90;;;8.00;;
67372;SDS011;54257;54.496;18.412;2022-11-14T10:38:32;12.70;;;8.30;;
67372;SDS011;54257;54.496;18.412;2022-11-14T10:41:08;11.80;;;8.20;;
67372;SDS011;54257;54.496;18.412;2022-11-14T10:43:39;11.30;;;7.40;;
67372;SDS011;54257;54.496;18.412;2022-11-14T10:48:52;10.30;;;8.20;;
67372;SDS011;54257;54.496;18.412;2022-11-14T10:53:54;12.00;;;8.10;;
67372;SDS011;54257;54.496;18.412;2022-11-14T10:56:47;12.30;;;8.60;;
67372;SDS011;54257;54.496;18.412;2022-11-14T10:59:19;11.10;;;8.60;;
67372;SDS011;54257;54.496;18.412;2022-11-14T11:06:58;11.00;;;7.90;;
67372;SDS011;54257;54.496;18.412;2022-11-14T11:10:18;11.30;;;8.30;;
67372;SDS011;54257;54.496;18.412;2022-11-14T11:13:10;12.80;;;9.40;;
67372;SDS011;54257;54.496;18.412;2022-11-14T11:15:41;11.70;;;8.60;;
67372;SDS011;54257;54.496;18.412;2022-11-14T11:18:25;13.90;;;10.50;;
67372;SDS011;54257;54.496;18.412;2022-11-14T11:21:09;14.80;;;9.70;;
67372;SDS011;54257;54.496;18.412;2022-11-14T11:23:53;22.30;;;10.80;;
67372;SDS011;54257;54.496;18.412;2022-11-14T11:26:25;14.00;;;10.20;;
67372;SDS011;54257;54.496;18.412;2022-11-14T11:29:28;15.70;;;10.60;;
67372;SDS011;54257;54.496;18.412;2022-11-14T11:31:48;11.30;;;8.30;;
67372;SDS011;54257;54.496;18.412;2022-11-14T11:34:37;12.80;;;8.70;;
67372;SDS011;54257;54.496;18.412;2022-11-14T11:37:12;12.60;;;9.50;;
67372;SDS011;54257;54.496;18.412;2022-11-14T11:39:48;11.30;;;8.80;;
67372;SDS011;54257;54.496;18.412;2022-11-14T11:42:22;16.10;;;10.90;;
67372;SDS011;54257;54.496;18.412;2022-11-14T11:44:54;14.80;;;10.90;;
67372;SDS011;54257;54.496;18.412;2022-11-14T11:47:25;14.40;;;10.50;;
67372;SDS011;54257;54.496;18.412;2022-11-14T11:49:56;15.80;;;11.70;;
67372;SDS011;54257;54.496;18.412;2022-11-14T11:55:20;15.10;;;11.20;;
67372;SDS011;54257;54.496;18.412;2022-11-14T11:58:00;14.30;;;11.20;;
67372;SDS011;54257;54.496;18.412;2022-11-14T12:00:38;11.70;;;9.40;;
67372;SDS011;54257;54.496;18.412;2022-11-14T12:03:08;13.50;;;10.50;;
67372;SDS011;54257;54.496;18.412;2022-11-14T12:10:58;14.10;;;11.00;;
67372;SDS011;54257;54.496;18.412;2022-11-14T12:13:38;14.80;;;10.00;;
67372;SDS011;54257;54.496;18.412;2022-11-14T12:27:20;16.80;;;12.50;;
67372;SDS011;54257;54.496;18.412;2022-11-14T12:32:39;19.20;;;12.80;;
67372;SDS011;54257;54.496;18.412;2022-11-14T12:35:25;17.80;;;14.00;;
67372;SDS011;54257;54.496;18.412;2022-11-14T12:37:57;17.90;;;12.30;;
67372;SDS011;54257;54.496;18.412;2022-11-14T12:40:28;19.70;;;12.00;;
67372;SDS011;54257;54.496;18.412;2022-11-14T12:43:25;22.60;;;13.80;;
67372;SDS011;54257;54.496;18.412;2022-11-14T12:45:55;19.70;;;13.30;;
67372;SDS011;54257;54.496;18.412;2022-11-14T12:48:30;21.70;;;14.00;;
67372;SDS011;54257;54.496;18.412;2022-11-14T12:50:59;20.20;;;11.60;;
67372;SDS011;54257;54.496;18.412;2022-11-14T13:02:15;19.60;;;13.00;;
67372;SDS011;54257;54.496;18.412;2022-11-14T13:07:58;24.50;;;14.20;;
67372;SDS011;54257;54.496;18.412;2022-11-14T13:10:37;19.70;;;12.90;;
67372;SDS011;54257;54.496;18.412;2022-11-14T13:13:09;16.80;;;12.20;;
67372;SDS011;54257;54.496;18.412;2022-11-14T13:15:56;15.00;;;12.40;;
67372;SDS011;54257;54.496;18.412;2022-11-14T13:27:27;17.60;;;12.40;;
67372;SDS011;54257;54.496;18.412;2022-11-14T13:35:25;18.30;;;12.70;;
67372;SDS011;54257;54.496;18.412;2022-11-14T13:44:12;21.60;;;13.30;;
67372;SDS011;54257;54.496;18.412;2022-11-14T13:52:26;17.90;;;12.00;;
67372;SDS011;54257;54.496;18.412;2022-11-14T13:54:56;20.60;;;13.80;;
67372;SDS011;54257;54.496;18.412;2022-11-14T14:00:12;17.30;;;12.70;;
67372;SDS011;54257;54.496;18.412;2022-11-14T14:10:05;17.20;;;13.10;;
67372;SDS011;54257;54.496;18.412;2022-11-14T14:12:19;18.40;;;12.20;;
67372;SDS011;54257;54.496;18.412;2022-11-14T14:28:08;22.70;;;15.40;;
67372;SDS011;54257;54.496;18.412;2022-11-14T14:31:14;19.50;;;14.40;;
67372;SDS011;54257;54.496;18.412;2022-11-14T14:33:46;19.60;;;14.80;;
67372;SDS011;54257;54.496;18.412;2022-11-14T14:36:18;21.30;;;15.20;;
67372;SDS011;54257;54.496;18.412;2022-11-14T14:41:40;24.80;;;16.50;;
67372;SDS011;54257;54.496;18.412;2022-11-14T14:44:27;30.10;;;16.90;;
67372;SDS011;54257;54.496;18.412;2022-11-14T14:46:57;23.50;;;16.70;;
67372;SDS011;54257;54.496;18.412;2022-11-14T14:49:29;21.80;;;15.60;;
67372;SDS011;54257;54.496;18.412;2022-11-14T14:52:17;22.50;;;16.90;;
67372;SDS011;54257;54.496;18.412;2022-11-14T14:54:56;26.20;;;18.00;;
67372;SDS011;54257;54.496;18.412;2022-11-14T14:57:24;26.00;;;17.50;;
67372;SDS011;54257;54.496;18.412;2022-11-14T14:59:59;26.40;;;19.50;;
67372;SDS011;54257;54.496;18.412;2022-11-14T15:02:31;26.70;;;19.80;;
67372;SDS011;54257;54.496;18.412;2022-11-14T15:04:58;31.90;;;18.00;;
67372;SDS011;54257;54.496;18.412;2022-11-14T15:07:27;25.20;;;18.40;;
67372;SDS011;54257;54.496;18.412;2022-11-14T15:09:59;23.90;;;18.70;;
67372;SDS011;54257;54.496;18.412;2022-11-14T15:12:28;25.80;;;18.10;;
67372;SDS011;54257;54.496;18.412;2022-11-14T15:14:57;29.80;;;19.50;;
67372;SDS011;54257;54.496;18.412;2022-11-14T15:17:26;27.10;;;18.30;;
67372;SDS011;54257;54.496;18.412;2022-11-14T15:19:54;28.10;;;19.70;;
67372;SDS011;54257;54.496;18.412;2022-11-14T15:22:22;24.50;;;18.70;;
67372;SDS011;54257;54.496;18.412;2022-11-14T15:27:44;32.60;;;21.70;;
67372;SDS011;54257;54.496;18.412;2022-11-14T15:30:21;31.90;;;22.00;;
67372;SDS011;54257;54.496;18.412;2022-11-14T15:32:51;33.10;;;21.10;;
67372;SDS011;54257;54.496;18.412;2022-11-14T15:35:25;30.80;;;21.10;;
67372;SDS011;54257;54.496;18.412;2022-11-14T15:38:29;32.80;;;22.20;;
67372;SDS011;54257;54.496;18.412;2022-11-14T15:41:08;31.10;;;22.50;;
67372;SDS011;54257;54.496;18.412;2022-11-14T15:43:46;34.70;;;22.90;;
67372;SDS011;54257;54.496;18.412;2022-11-14T15:46:25;37.10;;;24.70;;
67372;SDS011;54257;54.496;18.412;2022-11-14T15:48:59;35.30;;;24.10;;
67372;SDS011;54257;54.496;18.412;2022-11-14T15:51:37;38.20;;;25.10;;
67372;SDS011;54257;54.496;18.412;2022-11-14T15:54:48;40.30;;;25.60;;
67372;SDS011;54257;54.496;18.412;2022-11-14T15:57:13;41.00;;;25.50;;
67372;SDS011;54257;54.496;18.412;2022-11-14T15:59:43;35.60;;;24.20;;
67372;SDS011;54257;54.496;18.412;2022-11-14T16:02:12;39.70;;;26.30;;
67372;SDS011;54257;54.496;18.412;2022-11-14T16:04:43;37.10;;;24.90;;
67372;SDS011;54257;54.496;18.412;2022-11-14T16:07:11;38.80;;;25.40;;
67372;SDS011;54257;54.496;18.412;2022-11-14T16:09:39;36.80;;;25.30;;
67372;SDS011;54257;54.496;18.412;2022-11-14T16:12:10;36.30;;;24.20;;
67372;SDS011;54257;54.496;18.412;2022-11-14T16:14:38;38.60;;;26.40;;
67372;SDS011;54257;54.496;18.412;2022-11-14T16:17:07;35.00;;;23.50;;
67372;SDS011;54257;54.496;18.412;2022-11-14T16:19:38;37.40;;;23.90;;
67372;SDS011;54257;54.496;18.412;2022-11-14T16:22:07;35.50;;;23.60;;
67372;SDS011;54257;54.496;18.412;2022-11-14T16:24:37;35.30;;;22.90;;
67372;SDS011;54257;54.496;18.412;2022-11-14T16:27:04;33.60;;;22.20;;
67372;SDS011;54257;54.496;18.412;2022-11-14T16:29:31;33.90;;;22.90;;
67372;SDS011;54257;54.496;18.412;2022-11-14T16:31:58;32.10;;;21.20;;
67372;SDS011;54257;54.496;18.412;2022-11-14T16:34:26;34.90;;;22.60;;
67372;SDS011;54257;54.496;18.412;2022-11-14T16:37:00;38.20;;;23.60;;
67372;SDS011;54257;54.496;18.412;2022-11-14T16:39:29;38.70;;;23.10;;
67372;SDS011;54257;54.496;18.412;2022-11-14T16:42:00;36.90;;;24.10;;
67372;SDS011;54257;54.496;18.412;2022-11-14T16:44:28;35.10;;;23.20;;
67372;SDS011;54257;54.496;18.412;2022-11-14T16:46:56;37.20;;;22.80;;
67372;SDS011;54257;54.496;18.412;2022-11-14T16:49:24;37.20;;;25.40;;
67372;SDS011;54257;54.496;18.412;2022-11-14T16:51:51;38.40;;;24.20;;
67372;SDS011;54257;54.496;18.412;2022-11-14T16:54:20;42.10;;;26.80;;